sensor_id;sensor_type;location;lat;lon;timestamp;P1;durP1;ratioP1;P2;durP2;ratioP2
67556;SDS011;54387;53.526;49.300;2023-05-21T00:00:23;16.13;;;10.15;;
67556;SDS011;54387;53.526;49.300;2023-05-21T00:02:50;15.73;;;10.80;;
67556;SDS011;54387;53.526;49.300;2023-05-21T00:05:16;14.18;;;10.85;;
67556;SDS011;54387;53.526;49.300;2023-05-21T00:07:43;15.05;;;10.30;;
67556;SDS011;54387;53.526;49.300;2023-05-21T00:10:11;15.77;;;9.85;;
67556;SDS011;54387;53.526;49.300;2023-05-21T00:12:38;14.10;;;8.73;;
67556;SDS011;54387;53.526;49.300;2023-05-21T00:15:06;17.17;;;10.02;;
67556;SDS011;54387;53.526;49.300;2023-05-21T00:17:32;16.27;;;10.07;;
67556;SDS011;54387;53.526;49.300;2023-05-21T00:20:01;17.13;;;9.45;;
67556;SDS011;54387;53.526;49.300;2023-05-21T00:22:31;14.35;;;9.27;;
67556;SDS011;54387;53.526;49.300;2023-05-21T00:24:58;12.82;;;8.77;;
67556;SDS011;54387;53.526;49.300;2023-05-21T00:27:24;15.68;;;9.85;;
67556;SDS011;54387;53.526;49.300;2023-05-21T00:29:50;12.88;;;9.43;;
67556;SDS011;54387;53.526;49.300;2023-05-21T00:32:16;14.60;;;9.40;;
67556;SDS011;54387;53.526;49.300;2023-05-21T00:34:43;13.82;;;9.25;;
67556;SDS011;54387;53.526;49.300;2023-05-21T00:37:09;15.00;;;10.15;;
67556;SDS011;54387;53.526;49.300;2023-05-21T00:39:35;19.65;;;9.25;;
67556;SDS011;54387;53.526;49.300;2023-05-21T00:42:01;14.98;;;8.73;;
67556;SDS011;54387;53.526;49.300;2023-05-21T00:44:28;16.00;;;9.32;;
67556;SDS011;54387;53.526;49.300;2023-05-21T00:46:59;15.30;;;10.00;;
67556;SDS011;54387;53.526;49.300;2023-05-21T00:49:26;22.20;;;10.18;;
67556;SDS011;54387;53.526;49.300;2023-05-21T00:51:53;22.95;;;11.52;;
67556;SDS011;54387;53.526;49.300;2023-05-21T00:54:20;19.77;;;11.15;;
67556;SDS011;54387;53.526;49.300;2023-05-21T00:56:46;17.23;;;10.57;;
67556;SDS011;54387;53.526;49.300;2023-05-21T00:59:16;20.98;;;10.55;;
67556;SDS011;54387;53.526;49.300;2023-05-21T01:01:42;15.73;;;8.93;;
67556;SDS011;54387;53.526;49.300;2023-05-21T01:04:10;14.65;;;8.57;;
67556;SDS011;54387;53.526;49.300;2023-05-21T01:06:36;10.20;;;7.57;;
67556;SDS011;54387;53.526;49.300;2023-05-21T01:09:03;9.68;;;6.13;;
67556;SDS011;54387;53.526;49.300;2023-05-21T01:14:05;10.27;;;5.70;;
67556;SDS011;54387;53.526;49.300;2023-05-21T01:16:34;8.93;;;6.10;;
67556;SDS011;54387;53.526;49.300;2023-05-21T01:19:03;6.80;;;5.80;;
67556;SDS011;54387;53.526;49.300;2023-05-21T01:21:32;10.73;;;6.30;;
67556;SDS011;54387;53.526;49.300;2023-05-21T01:24:00;6.80;;;5.35;;
67556;SDS011;54387;53.526;49.300;2023-05-21T01:26:30;10.25;;;6.05;;
67556;SDS011;54387;53.526;49.300;2023-05-21T01:28:58;9.57;;;6.30;;
67556;SDS011;54387;53.526;49.300;2023-05-21T01:31:36;13.45;;;6.55;;
67556;SDS011;54387;53.526;49.300;2023-05-21T01:34:12;22.05;;;7.80;;
67556;SDS011;54387;53.526;49.300;2023-05-21T01:36:44;12.07;;;7.60;;
67556;SDS011;54387;53.526;49.300;2023-05-21T01:39:16;14.68;;;8.60;;
67556;SDS011;54387;53.526;49.300;2023-05-21T01:41:47;21.13;;;10.52;;
67556;SDS011;54387;53.526;49.300;2023-05-21T01:44:17;18.50;;;10.25;;
67556;SDS011;54387;53.526;49.300;2023-05-21T01:46:43;18.85;;;10.68;;
67556;SDS011;54387;53.526;49.300;2023-05-21T01:49:10;19.95;;;9.77;;
67556;SDS011;54387;53.526;49.300;2023-05-21T01:51:36;17.58;;;10.10;;
67556;SDS011;54387;53.526;49.300;2023-05-21T01:54:03;18.00;;;9.07;;
67556;SDS011;54387;53.526;49.300;2023-05-21T01:56:29;13.63;;;8.23;;
67556;SDS011;54387;53.526;49.300;2023-05-21T01:58:58;11.80;;;7.75;;
67556;SDS011;54387;53.526;49.300;2023-05-21T02:01:25;11.80;;;7.72;;
67556;SDS011;54387;53.526;49.300;2023-05-21T02:03:54;10.30;;;7.20;;
67556;SDS011;54387;53.526;49.300;2023-05-21T02:06:22;11.73;;;6.43;;
67556;SDS011;54387;53.526;49.300;2023-05-21T02:08:48;9.25;;;5.28;;
67556;SDS011;54387;53.526;49.300;2023-05-21T02:11:15;7.85;;;5.90;;
67556;SDS011;54387;53.526;49.300;2023-05-21T02:13:41;8.75;;;5.50;;
67556;SDS011;54387;53.526;49.300;2023-05-21T02:16:07;7.32;;;4.78;;
67556;SDS011;54387;53.526;49.300;2023-05-21T02:18:42;8.68;;;5.07;;
67556;SDS011;54387;53.526;49.300;2023-05-21T02:21:08;7.88;;;4.90;;
67556;SDS011;54387;53.526;49.300;2023-05-21T02:23:38;6.15;;;4.95;;
67556;SDS011;54387;53.526;49.300;2023-05-21T02:26:04;10.02;;;4.38;;
67556;SDS011;54387;53.526;49.300;2023-05-21T02:28:30;8.35;;;4.78;;
67556;SDS011;54387;53.526;49.300;2023-05-21T02:30:57;5.70;;;3.55;;
67556;SDS011;54387;53.526;49.300;2023-05-21T02:33:23;6.00;;;4.40;;
67556;SDS011;54387;53.526;49.300;2023-05-21T02:35:50;4.65;;;3.65;;
67556;SDS011;54387;53.526;49.300;2023-05-21T02:38:16;7.05;;;3.63;;
67556;SDS011;54387;53.526;49.300;2023-05-21T02:40:44;8.35;;;4.88;;
67556;SDS011;54387;53.526;49.300;2023-05-21T02:43:10;6.53;;;4.45;;
67556;SDS011;54387;53.526;49.300;2023-05-21T02:45:36;6.60;;;4.03;;
67556;SDS011;54387;53.526;49.300;2023-05-21T02:48:03;5.65;;;4.10;;
67556;SDS011;54387;53.526;49.300;2023-05-21T02:50:29;8.95;;;4.15;;
67556;SDS011;54387;53.526;49.300;2023-05-21T02:52:55;4.45;;;3.58;;
67556;SDS011;54387;53.526;49.300;2023-05-21T02:55:24;6.10;;;4.05;;
67556;SDS011;54387;53.526;49.300;2023-05-21T02:57:50;5.47;;;4.00;;
67556;SDS011;54387;53.526;49.300;2023-05-21T03:00:16;6.43;;;4.00;;
67556;SDS011;54387;53.526;49.300;2023-05-21T03:02:43;7.90;;;3.92;;
67556;SDS011;54387;53.526;49.300;2023-05-21T03:05:09;6.68;;;3.63;;
67556;SDS011;54387;53.526;49.300;2023-05-21T03:07:35;5.03;;;3.90;;
67556;SDS011;54387;53.526;49.300;2023-05-21T03:10:01;5.72;;;3.67;;
67556;SDS011;54387;53.526;49.300;2023-05-21T03:12:27;6.07;;;3.80;;
67556;SDS011;54387;53.526;49.300;2023-05-21T03:14:53;8.00;;;3.97;;
67556;SDS011;54387;53.526;49.300;2023-05-21T03:17:20;13.20;;;4.40;;
67556;SDS011;54387;53.526;49.300;2023-05-21T03:19:46;7.03;;;3.70;;
67556;SDS011;54387;53.526;49.300;2023-05-21T03:22:13;8.68;;;4.20;;
67556;SDS011;54387;53.526;49.300;2023-05-21T03:24:40;7.65;;;4.35;;
67556;SDS011;54387;53.526;49.300;2023-05-21T03:27:06;9.13;;;4.10;;
67556;SDS011;54387;53.526;49.300;2023-05-21T03:29:33;11.27;;;4.60;;
67556;SDS011;54387;53.526;49.300;2023-05-21T03:31:59;10.75;;;4.55;;
67556;SDS011;54387;53.526;49.300;2023-05-21T03:34:26;9.75;;;4.45;;
67556;SDS011;54387;53.526;49.300;2023-05-21T03:36:52;8.95;;;5.18;;
67556;SDS011;54387;53.526;49.300;2023-05-21T03:39:18;10.68;;;4.97;;
67556;SDS011;54387;53.526;49.300;2023-05-21T03:41:45;10.88;;;4.72;;
67556;SDS011;54387;53.526;49.300;2023-05-21T03:44:11;10.10;;;4.70;;
67556;SDS011;54387;53.526;49.300;2023-05-21T03:46:37;10.18;;;5.30;;
67556;SDS011;54387;53.526;49.300;2023-05-21T03:49:03;10.38;;;5.05;;
67556;SDS011;54387;53.526;49.300;2023-05-21T03:51:29;11.63;;;4.82;;
67556;SDS011;54387;53.526;49.300;2023-05-21T03:53:56;10.88;;;5.13;;
67556;SDS011;54387;53.526;49.300;2023-05-21T03:56:23;8.27;;;5.40;;
67556;SDS011;54387;53.526;49.300;2023-05-21T03:58:50;8.32;;;4.90;;
67556;SDS011;54387;53.526;49.300;2023-05-21T04:01:17;10.50;;;4.63;;
67556;SDS011;54387;53.526;49.300;2023-05-21T04:03:43;8.27;;;4.88;;
67556;SDS011;54387;53.526;49.300;2023-05-21T04:06:10;11.52;;;4.55;;
67556;SDS011;54387;53.526;49.300;2023-05-21T04:08:36;9.73;;;4.70;;
67556;SDS011;54387;53.526;49.300;2023-05-21T04:11:02;11.88;;;5.03;;
67556;SDS011;54387;53.526;49.300;2023-05-21T04:13:28;7.20;;;4.05;;
67556;SDS011;54387;53.526;49.300;2023-05-21T04:15:54;9.50;;;4.45;;
67556;SDS011;54387;53.526;49.300;2023-05-21T04:18:21;7.80;;;4.43;;
67556;SDS011;54387;53.526;49.300;2023-05-21T04:20:50;7.13;;;4.25;;
67556;SDS011;54387;53.526;49.300;2023-05-21T04:23:17;11.82;;;4.40;;
67556;SDS011;54387;53.526;49.300;2023-05-21T04:25:44;6.40;;;3.90;;
67556;SDS011;54387;53.526;49.300;2023-05-21T04:28:15;10.77;;;4.85;;
67556;SDS011;54387;53.526;49.300;2023-05-21T04:30:47;8.93;;;3.63;;
67556;SDS011;54387;53.526;49.300;2023-05-21T04:33:14;6.80;;;3.65;;
67556;SDS011;54387;53.526;49.300;2023-05-21T04:35:44;9.80;;;3.55;;
67556;SDS011;54387;53.526;49.300;2023-05-21T04:38:14;7.88;;;3.72;;
67556;SDS011;54387;53.526;49.300;2023-05-21T04:40:45;5.70;;;3.20;;
67556;SDS011;54387;53.526;49.300;2023-05-21T04:43:19;9.25;;;3.67;;
67556;SDS011;54387;53.526;49.300;2023-05-21T04:45:51;6.95;;;3.38;;
67556;SDS011;54387;53.526;49.300;2023-05-21T04:48:19;8.60;;;3.30;;
67556;SDS011;54387;53.526;49.300;2023-05-21T04:50:49;6.70;;;3.90;;
67556;SDS011;54387;53.526;49.300;2023-05-21T04:53:16;9.98;;;2.78;;
67556;SDS011;54387;53.526;49.300;2023-05-21T04:55:42;8.30;;;2.30;;
67556;SDS011;54387;53.526;49.300;2023-05-21T04:58:08;6.88;;;2.50;;
67556;SDS011;54387;53.526;49.300;2023-05-21T05:00:38;10.13;;;2.67;;
67556;SDS011;54387;53.526;49.300;2023-05-21T05:03:06;8.10;;;2.40;;
67556;SDS011;54387;53.526;49.300;2023-05-21T05:05:32;8.63;;;2.42;;
67556;SDS011;54387;53.526;49.300;2023-05-21T05:07:58;6.72;;;2.33;;
67556;SDS011;54387;53.526;49.300;2023-05-21T05:10:24;4.78;;;2.10;;
67556;SDS011;54387;53.526;49.300;2023-05-21T05:12:51;6.22;;;1.67;;
67556;SDS011;54387;53.526;49.300;2023-05-21T05:15:17;3.70;;;1.75;;
67556;SDS011;54387;53.526;49.300;2023-05-21T05:17:43;5.38;;;1.60;;
67556;SDS011;54387;53.526;49.300;2023-05-21T05:20:09;2.90;;;1.45;;
67556;SDS011;54387;53.526;49.300;2023-05-21T05:22:36;7.70;;;1.70;;
67556;SDS011;54387;53.526;49.300;2023-05-21T05:25:02;4.43;;;1.55;;
67556;SDS011;54387;53.526;49.300;2023-05-21T05:27:28;3.50;;;1.48;;
67556;SDS011;54387;53.526;49.300;2023-05-21T05:29:54;3.85;;;1.60;;
67556;SDS011;54387;53.526;49.300;2023-05-21T05:32:20;6.57;;;1.33;;
67556;SDS011;54387;53.526;49.300;2023-05-21T05:34:47;6.10;;;1.90;;
67556;SDS011;54387;53.526;49.300;2023-05-21T05:37:13;5.75;;;1.60;;
67556;SDS011;54387;53.526;49.300;2023-05-21T05:39:39;7.28;;;1.75;;
67556;SDS011;54387;53.526;49.300;2023-05-21T05:42:05;4.75;;;1.63;;
67556;SDS011;54387;53.526;49.300;2023-05-21T05:44:31;2.83;;;1.55;;
67556;SDS011;54387;53.526;49.300;2023-05-21T05:46:57;5.55;;;1.65;;
67556;SDS011;54387;53.526;49.300;2023-05-21T05:49:24;3.28;;;1.30;;
67556;SDS011;54387;53.526;49.300;2023-05-21T05:51:50;8.45;;;1.60;;
67556;SDS011;54387;53.526;49.300;2023-05-21T05:54:16;4.30;;;1.70;;
67556;SDS011;54387;53.526;49.300;2023-05-21T05:56:43;5.53;;;1.40;;
67556;SDS011;54387;53.526;49.300;2023-05-21T05:59:09;3.80;;;1.80;;
67556;SDS011;54387;53.526;49.300;2023-05-21T06:01:36;4.00;;;1.60;;
67556;SDS011;54387;53.526;49.300;2023-05-21T06:04:02;5.40;;;1.38;;
67556;SDS011;54387;53.526;49.300;2023-05-21T06:06:28;4.15;;;1.40;;
67556;SDS011;54387;53.526;49.300;2023-05-21T06:08:55;4.03;;;1.30;;
67556;SDS011;54387;53.526;49.300;2023-05-21T06:11:22;3.22;;;1.42;;
67556;SDS011;54387;53.526;49.300;2023-05-21T06:13:48;7.22;;;1.90;;
67556;SDS011;54387;53.526;49.300;2023-05-21T06:16:14;7.30;;;1.38;;
67556;SDS011;54387;53.526;49.300;2023-05-21T06:18:40;3.88;;;1.35;;
67556;SDS011;54387;53.526;49.300;2023-05-21T06:21:06;6.07;;;1.52;;
67556;SDS011;54387;53.526;49.300;2023-05-21T06:23:33;3.03;;;1.30;;
67556;SDS011;54387;53.526;49.300;2023-05-21T06:26:02;2.30;;;1.27;;
67556;SDS011;54387;53.526;49.300;2023-05-21T06:28:29;5.45;;;1.65;;
67556;SDS011;54387;53.526;49.300;2023-05-21T06:30:55;4.18;;;1.50;;
67556;SDS011;54387;53.526;49.300;2023-05-21T06:33:22;11.38;;;1.75;;
67556;SDS011;54387;53.526;49.300;2023-05-21T06:35:48;3.17;;;1.23;;
67556;SDS011;54387;53.526;49.300;2023-05-21T06:38:14;4.72;;;1.50;;
67556;SDS011;54387;53.526;49.300;2023-05-21T06:40:40;8.60;;;1.48;;
67556;SDS011;54387;53.526;49.300;2023-05-21T06:43:19;5.20;;;1.58;;
67556;SDS011;54387;53.526;49.300;2023-05-21T06:45:45;5.80;;;1.27;;
67556;SDS011;54387;53.526;49.300;2023-05-21T06:48:11;8.48;;;1.60;;
67556;SDS011;54387;53.526;49.300;2023-05-21T06:50:40;3.30;;;1.35;;
67556;SDS011;54387;53.526;49.300;2023-05-21T06:53:06;3.53;;;1.70;;
67556;SDS011;54387;53.526;49.300;2023-05-21T06:55:35;6.78;;;1.77;;
67556;SDS011;54387;53.526;49.300;2023-05-21T06:58:01;8.43;;;1.90;;
67556;SDS011;54387;53.526;49.300;2023-05-21T07:00:28;5.20;;;1.20;;
67556;SDS011;54387;53.526;49.300;2023-05-21T07:02:54;7.65;;;1.30;;
67556;SDS011;54387;53.526;49.300;2023-05-21T07:05:20;4.63;;;1.63;;
67556;SDS011;54387;53.526;49.300;2023-05-21T07:07:46;5.15;;;1.33;;
67556;SDS011;54387;53.526;49.300;2023-05-21T07:10:12;7.65;;;1.50;;
67556;SDS011;54387;53.526;49.300;2023-05-21T07:12:39;6.70;;;1.50;;
67556;SDS011;54387;53.526;49.300;2023-05-21T07:15:05;4.75;;;1.63;;
67556;SDS011;54387;53.526;49.300;2023-05-21T07:17:33;2.97;;;1.33;;
67556;SDS011;54387;53.526;49.300;2023-05-21T07:19:59;5.32;;;1.83;;
67556;SDS011;54387;53.526;49.300;2023-05-21T07:22:25;5.68;;;1.55;;
67556;SDS011;54387;53.526;49.300;2023-05-21T07:24:52;5.68;;;1.25;;
67556;SDS011;54387;53.526;49.300;2023-05-21T07:27:18;6.40;;;1.33;;
67556;SDS011;54387;53.526;49.300;2023-05-21T07:29:44;4.20;;;1.33;;
67556;SDS011;54387;53.526;49.300;2023-05-21T07:32:10;3.75;;;1.40;;
67556;SDS011;54387;53.526;49.300;2023-05-21T07:34:37;8.95;;;2.25;;
67556;SDS011;54387;53.526;49.300;2023-05-21T07:37:03;5.28;;;1.30;;
67556;SDS011;54387;53.526;49.300;2023-05-21T07:39:30;8.15;;;1.90;;
67556;SDS011;54387;53.526;49.300;2023-05-21T07:41:56;6.15;;;1.50;;
67556;SDS011;54387;53.526;49.300;2023-05-21T07:44:22;8.18;;;1.60;;
67556;SDS011;54387;53.526;49.300;2023-05-21T07:46:48;4.85;;;1.20;;
67556;SDS011;54387;53.526;49.300;2023-05-21T07:49:15;4.20;;;1.23;;
67556;SDS011;54387;53.526;49.300;2023-05-21T07:51:41;7.68;;;1.50;;
67556;SDS011;54387;53.526;49.300;2023-05-21T07:54:08;10.57;;;1.70;;
67556;SDS011;54387;53.526;49.300;2023-05-21T07:56:35;17.83;;;2.60;;
67556;SDS011;54387;53.526;49.300;2023-05-21T07:59:01;11.02;;;1.88;;
67556;SDS011;54387;53.526;49.300;2023-05-21T08:01:27;8.70;;;1.77;;
67556;SDS011;54387;53.526;49.300;2023-05-21T08:03:54;9.30;;;1.75;;
67556;SDS011;54387;53.526;49.300;2023-05-21T08:06:20;7.65;;;1.70;;
67556;SDS011;54387;53.526;49.300;2023-05-21T08:08:49;13.60;;;2.20;;
67556;SDS011;54387;53.526;49.300;2023-05-21T08:11:15;5.32;;;1.42;;
67556;SDS011;54387;53.526;49.300;2023-05-21T08:13:41;6.53;;;1.50;;
67556;SDS011;54387;53.526;49.300;2023-05-21T08:16:07;10.18;;;1.60;;
67556;SDS011;54387;53.526;49.300;2023-05-21T08:18:33;7.07;;;1.60;;
67556;SDS011;54387;53.526;49.300;2023-05-21T08:20:59;4.32;;;1.27;;
67556;SDS011;54387;53.526;49.300;2023-05-21T08:23:25;4.32;;;1.60;;
67556;SDS011;54387;53.526;49.300;2023-05-21T08:25:52;3.58;;;1.17;;
67556;SDS011;54387;53.526;49.300;2023-05-21T08:28:20;5.57;;;1.38;;
67556;SDS011;54387;53.526;49.300;2023-05-21T08:30:46;6.35;;;1.50;;
67556;SDS011;54387;53.526;49.300;2023-05-21T08:33:12;7.20;;;1.58;;
67556;SDS011;54387;53.526;49.300;2023-05-21T08:35:39;4.90;;;1.70;;
67556;SDS011;54387;53.526;49.300;2023-05-21T08:38:05;8.15;;;1.48;;
67556;SDS011;54387;53.526;49.300;2023-05-21T08:40:31;10.70;;;1.85;;
67556;SDS011;54387;53.526;49.300;2023-05-21T08:43:04;4.83;;;1.77;;
67556;SDS011;54387;53.526;49.300;2023-05-21T08:45:32;6.47;;;1.52;;
67556;SDS011;54387;53.526;49.300;2023-05-21T08:48:04;6.88;;;1.80;;
67556;SDS011;54387;53.526;49.300;2023-05-21T08:50:33;9.63;;;1.52;;
67556;SDS011;54387;53.526;49.300;2023-05-21T08:52:59;11.15;;;1.80;;
67556;SDS011;54387;53.526;49.300;2023-05-21T08:55:26;7.55;;;1.75;;
67556;SDS011;54387;53.526;49.300;2023-05-21T08:57:53;9.95;;;1.92;;
67556;SDS011;54387;53.526;49.300;2023-05-21T09:00:19;7.07;;;1.60;;
67556;SDS011;54387;53.526;49.300;2023-05-21T09:02:45;5.78;;;1.67;;
67556;SDS011;54387;53.526;49.300;2023-05-21T09:05:12;10.18;;;1.92;;
67556;SDS011;54387;53.526;49.300;2023-05-21T09:10:36;6.90;;;2.15;;
67556;SDS011;54387;53.526;49.300;2023-05-21T09:13:04;6.38;;;1.90;;
67556;SDS011;54387;53.526;49.300;2023-05-21T09:15:33;8.50;;;2.30;;
67556;SDS011;54387;53.526;49.300;2023-05-21T09:17:59;7.68;;;1.63;;
67556;SDS011;54387;53.526;49.300;2023-05-21T09:20:26;3.47;;;1.88;;
67556;SDS011;54387;53.526;49.300;2023-05-21T09:22:53;9.95;;;1.88;;
67556;SDS011;54387;53.526;49.300;2023-05-21T09:25:21;8.57;;;1.90;;
67556;SDS011;54387;53.526;49.300;2023-05-21T09:27:48;4.55;;;1.70;;
67556;SDS011;54387;53.526;49.300;2023-05-21T09:30:16;8.93;;;1.88;;
67556;SDS011;54387;53.526;49.300;2023-05-21T09:32:44;5.45;;;1.80;;
67556;SDS011;54387;53.526;49.300;2023-05-21T09:35:11;6.43;;;2.00;;
67556;SDS011;54387;53.526;49.300;2023-05-21T09:37:41;7.85;;;2.30;;
67556;SDS011;54387;53.526;49.300;2023-05-21T09:42:44;8.30;;;2.28;;
67556;SDS011;54387;53.526;49.300;2023-05-21T09:45:16;7.22;;;1.85;;
67556;SDS011;54387;53.526;49.300;2023-05-21T09:47:48;7.53;;;2.08;;
67556;SDS011;54387;53.526;49.300;2023-05-21T09:50:17;4.68;;;1.65;;
67556;SDS011;54387;53.526;49.300;2023-05-21T09:52:47;9.15;;;1.85;;
67556;SDS011;54387;53.526;49.300;2023-05-21T09:55:17;5.93;;;1.90;;
67556;SDS011;54387;53.526;49.300;2023-05-21T09:57:47;5.15;;;1.50;;
67556;SDS011;54387;53.526;49.300;2023-05-21T10:00:21;4.13;;;1.50;;
67556;SDS011;54387;53.526;49.300;2023-05-21T10:02:55;6.65;;;2.00;;
67556;SDS011;54387;53.526;49.300;2023-05-21T10:07:52;11.48;;;5.93;;
67556;SDS011;54387;53.526;49.300;2023-05-21T10:10:35;7.32;;;3.15;;
67556;SDS011;54387;53.526;49.300;2023-05-21T10:13:05;6.18;;;2.13;;
67556;SDS011;54387;53.526;49.300;2023-05-21T10:15:38;7.07;;;2.28;;
67556;SDS011;54387;53.526;49.300;2023-05-21T10:18:08;6.95;;;2.33;;
67556;SDS011;54387;53.526;49.300;2023-05-21T10:20:36;4.95;;;2.13;;
67556;SDS011;54387;53.526;49.300;2023-05-21T10:23:03;6.50;;;1.90;;
67556;SDS011;54387;53.526;49.300;2023-05-21T10:25:29;5.10;;;2.65;;
67556;SDS011;54387;53.526;49.300;2023-05-21T10:27:56;7.20;;;2.30;;
67556;SDS011;54387;53.526;49.300;2023-05-21T10:30:23;7.90;;;2.20;;
67556;SDS011;54387;53.526;49.300;2023-05-21T10:32:50;8.05;;;1.98;;
67556;SDS011;54387;53.526;49.300;2023-05-21T10:35:16;10.02;;;2.10;;
67556;SDS011;54387;53.526;49.300;2023-05-21T10:37:42;6.13;;;2.50;;
67556;SDS011;54387;53.526;49.300;2023-05-21T10:40:10;4.72;;;2.15;;
67556;SDS011;54387;53.526;49.300;2023-05-21T11:02:06;5.88;;;2.35;;
67556;SDS011;54387;53.526;49.300;2023-05-21T11:04:35;6.45;;;2.13;;
67556;SDS011;54387;53.526;49.300;2023-05-21T11:07:04;5.97;;;2.20;;
67556;SDS011;54387;53.526;49.300;2023-05-21T11:09:30;5.88;;;2.45;;
67556;SDS011;54387;53.526;49.300;2023-05-21T11:11:57;6.50;;;2.38;;
67556;SDS011;54387;53.526;49.300;2023-05-21T11:16:51;13.30;;;2.30;;
67556;SDS011;54387;53.526;49.300;2023-05-21T11:19:17;7.55;;;2.20;;
67556;SDS011;54387;53.526;49.300;2023-05-21T11:21:49;8.98;;;2.63;;
67556;SDS011;54387;53.526;49.300;2023-05-21T11:24:19;4.78;;;2.10;;
67556;SDS011;54387;53.526;49.300;2023-05-21T11:29:12;7.07;;;2.20;;
67556;SDS011;54387;53.526;49.300;2023-05-21T11:31:44;6.88;;;2.40;;
67556;SDS011;54387;53.526;49.300;2023-05-21T11:34:11;6.13;;;2.20;;
67556;SDS011;54387;53.526;49.300;2023-05-21T11:36:46;8.30;;;2.20;;
67556;SDS011;54387;53.526;49.300;2023-05-21T11:39:38;6.57;;;2.08;;
67556;SDS011;54387;53.526;49.300;2023-05-21T11:42:04;5.30;;;2.13;;
67556;SDS011;54387;53.526;49.300;2023-05-21T11:47:07;8.82;;;2.28;;
67556;SDS011;54387;53.526;49.300;2023-05-21T11:49:35;9.43;;;2.33;;
67556;SDS011;54387;53.526;49.300;2023-05-21T11:52:03;5.72;;;2.88;;
67556;SDS011;54387;53.526;49.300;2023-05-21T11:54:30;9.05;;;2.50;;
67556;SDS011;54387;53.526;49.300;2023-05-21T11:57:04;6.10;;;2.47;;
67556;SDS011;54387;53.526;49.300;2023-05-21T11:59:34;4.30;;;2.53;;
67556;SDS011;54387;53.526;49.300;2023-05-21T12:02:02;7.25;;;2.53;;
67556;SDS011;54387;53.526;49.300;2023-05-21T12:04:29;6.50;;;2.15;;
67556;SDS011;54387;53.526;49.300;2023-05-21T12:07:02;12.57;;;2.50;;
67556;SDS011;54387;53.526;49.300;2023-05-21T12:12:27;9.68;;;2.30;;
67556;SDS011;54387;53.526;49.300;2023-05-21T12:14:53;5.78;;;2.28;;
67556;SDS011;54387;53.526;49.300;2023-05-21T12:17:20;7.18;;;1.98;;
67556;SDS011;54387;53.526;49.300;2023-05-21T12:19:49;7.15;;;2.30;;
67556;SDS011;54387;53.526;49.300;2023-05-21T12:22:17;6.45;;;2.10;;
67556;SDS011;54387;53.526;49.300;2023-05-21T12:24:46;4.57;;;2.00;;
67556;SDS011;54387;53.526;49.300;2023-05-21T12:27:13;7.18;;;2.83;;
67556;SDS011;54387;53.526;49.300;2023-05-21T12:29:42;3.35;;;2.17;;
67556;SDS011;54387;53.526;49.300;2023-05-21T12:32:10;8.63;;;2.40;;
67556;SDS011;54387;53.526;49.300;2023-05-21T12:34:44;4.80;;;2.35;;
67556;SDS011;54387;53.526;49.300;2023-05-21T12:37:25;8.00;;;2.33;;
67556;SDS011;54387;53.526;49.300;2023-05-21T12:39:57;7.85;;;2.38;;
67556;SDS011;54387;53.526;49.300;2023-05-21T12:42:25;5.70;;;1.90;;
67556;SDS011;54387;53.526;49.300;2023-05-21T12:44:57;5.32;;;2.20;;
67556;SDS011;54387;53.526;49.300;2023-05-21T12:47:24;5.28;;;2.38;;
67556;SDS011;54387;53.526;49.300;2023-05-21T12:49:57;10.48;;;2.38;;
67556;SDS011;54387;53.526;49.300;2023-05-21T12:52:24;4.55;;;1.95;;
67556;SDS011;54387;53.526;49.300;2023-05-21T12:54:55;5.35;;;2.25;;
67556;SDS011;54387;53.526;49.300;2023-05-21T12:57:24;5.85;;;2.20;;
67556;SDS011;54387;53.526;49.300;2023-05-21T12:59:58;4.88;;;2.75;;
67556;SDS011;54387;53.526;49.300;2023-05-21T13:02:26;7.22;;;2.00;;
67556;SDS011;54387;53.526;49.300;2023-05-21T13:04:54;4.47;;;2.17;;
67556;SDS011;54387;53.526;49.300;2023-05-21T13:07:21;5.57;;;2.40;;
67556;SDS011;54387;53.526;49.300;2023-05-21T13:09:48;9.93;;;2.30;;
67556;SDS011;54387;53.526;49.300;2023-05-21T13:12:17;10.65;;;2.00;;
67556;SDS011;54387;53.526;49.300;2023-05-21T13:14:45;5.35;;;1.90;;
67556;SDS011;54387;53.526;49.300;2023-05-21T13:17:11;5.78;;;1.83;;
67556;SDS011;54387;53.526;49.300;2023-05-21T13:19:37;6.40;;;1.92;;
67556;SDS011;54387;53.526;49.300;2023-05-21T13:22:04;6.65;;;1.92;;
67556;SDS011;54387;53.526;49.300;2023-05-21T13:24:31;6.55;;;1.73;;
67556;SDS011;54387;53.526;49.300;2023-05-21T13:26:57;3.30;;;1.40;;
67556;SDS011;54387;53.526;49.300;2023-05-21T13:29:24;7.05;;;1.90;;
67556;SDS011;54387;53.526;49.300;2023-05-21T13:31:50;3.20;;;1.73;;
67556;SDS011;54387;53.526;49.300;2023-05-21T13:34:16;10.73;;;1.90;;
67556;SDS011;54387;53.526;49.300;2023-05-21T13:36:42;4.68;;;1.50;;
67556;SDS011;54387;53.526;49.300;2023-05-21T13:39:08;6.03;;;1.48;;
67556;SDS011;54387;53.526;49.300;2023-05-21T13:41:35;6.35;;;1.63;;
67556;SDS011;54387;53.526;49.300;2023-05-21T13:44:01;8.70;;;1.55;;
67556;SDS011;54387;53.526;49.300;2023-05-21T13:46:27;6.85;;;1.40;;
67556;SDS011;54387;53.526;49.300;2023-05-21T13:48:54;6.80;;;1.50;;
67556;SDS011;54387;53.526;49.300;2023-05-21T13:51:21;7.47;;;2.03;;
67556;SDS011;54387;53.526;49.300;2023-05-21T13:53:47;3.17;;;1.17;;
67556;SDS011;54387;53.526;49.300;2023-05-21T13:56:14;5.88;;;2.17;;
67556;SDS011;54387;53.526;49.300;2023-05-21T13:58:41;5.22;;;1.88;;
67556;SDS011;54387;53.526;49.300;2023-05-21T14:01:07;5.72;;;1.63;;
67556;SDS011;54387;53.526;49.300;2023-05-21T14:03:33;3.80;;;1.55;;
67556;SDS011;54387;53.526;49.300;2023-05-21T14:06:00;8.77;;;1.80;;
67556;SDS011;54387;53.526;49.300;2023-05-21T14:08:26;6.07;;;1.90;;
67556;SDS011;54387;53.526;49.300;2023-05-21T14:10:53;4.60;;;1.60;;
67556;SDS011;54387;53.526;49.300;2023-05-21T14:13:20;8.30;;;1.80;;
67556;SDS011;54387;53.526;49.300;2023-05-21T14:15:46;5.22;;;1.58;;
67556;SDS011;54387;53.526;49.300;2023-05-21T14:18:13;7.65;;;1.58;;
67556;SDS011;54387;53.526;49.300;2023-05-21T14:20:39;5.45;;;1.30;;
67556;SDS011;54387;53.526;49.300;2023-05-21T14:23:05;4.53;;;2.13;;
67556;SDS011;54387;53.526;49.300;2023-05-21T14:25:31;8.50;;;1.70;;
67556;SDS011;54387;53.526;49.300;2023-05-21T14:27:58;8.20;;;1.50;;
67556;SDS011;54387;53.526;49.300;2023-05-21T14:30:24;9.98;;;2.13;;
67556;SDS011;54387;53.526;49.300;2023-05-21T14:32:50;3.67;;;1.70;;
67556;SDS011;54387;53.526;49.300;2023-05-21T14:35:17;8.13;;;1.75;;
67556;SDS011;54387;53.526;49.300;2023-05-21T14:37:43;9.32;;;2.13;;
67556;SDS011;54387;53.526;49.300;2023-05-21T14:40:09;6.15;;;1.67;;
67556;SDS011;54387;53.526;49.300;2023-05-21T14:42:36;10.13;;;3.35;;
67556;SDS011;54387;53.526;49.300;2023-05-21T14:45:02;5.93;;;1.95;;
67556;SDS011;54387;53.526;49.300;2023-05-21T14:47:28;4.10;;;1.70;;
67556;SDS011;54387;53.526;49.300;2023-05-21T14:49:55;5.82;;;1.80;;
67556;SDS011;54387;53.526;49.300;2023-05-21T14:52:21;4.22;;;1.63;;
67556;SDS011;54387;53.526;49.300;2023-05-21T14:54:47;7.68;;;1.85;;
67556;SDS011;54387;53.526;49.300;2023-05-21T14:57:14;8.65;;;1.48;;
67556;SDS011;54387;53.526;49.300;2023-05-21T14:59:40;7.60;;;1.98;;
67556;SDS011;54387;53.526;49.300;2023-05-21T15:02:07;10.05;;;1.75;;
67556;SDS011;54387;53.526;49.300;2023-05-21T15:04:33;4.95;;;1.50;;
67556;SDS011;54387;53.526;49.300;2023-05-21T15:06:59;3.67;;;1.50;;
67556;SDS011;54387;53.526;49.300;2023-05-21T15:09:26;5.13;;;1.60;;
67556;SDS011;54387;53.526;49.300;2023-05-21T15:11:52;8.90;;;2.20;;